createdAt,value
2017-07-09T00:01:07.179Z,85.20
2017-07-09T00:03:35.122Z,85.40
2017-07-09T00:06:03.045Z,85.10
2017-07-09T00:08:30.968Z,85.60
2017-07-09T00:10:58.875Z,85.30
2017-07-09T00:13:26.752Z,85.00
2017-07-09T00:15:54.682Z,85.00
2017-07-09T00:18:23.038Z,85.00
2017-07-09T00:20:50.915Z,84.80
2017-07-09T00:23:18.838Z,84.40
2017-07-09T00:25:46.712Z,84.80
2017-07-09T00:28:14.565Z,84.60
2017-07-09T00:30:43.454Z,85.90
2017-07-09T00:33:12.097Z,84.40
2017-07-09T00:35:44.625Z,84.40
2017-07-09T00:38:13.246Z,84.90
2017-07-09T00:40:41.178Z,84.90
2017-07-09T00:43:09.126Z,86.10
2017-07-09T00:45:37.771Z,87.10
2017-07-09T00:48:05.711Z,87.00
2017-07-09T00:50:33.544Z,86.80
2017-07-09T00:53:01.399Z,86.70
2017-07-09T00:55:29.333Z,87.00
2017-07-09T00:57:57.263Z,88.10
2017-07-09T01:00:25.116Z,88.00
2017-07-09T01:02:53.039Z,87.90
2017-07-09T01:05:20.915Z,88.50
2017-07-09T01:07:48.826Z,88.70
2017-07-09T01:10:16.796Z,88.90
2017-07-09T01:12:44.667Z,89.10
2017-07-09T01:15:12.552Z,88.20
2017-07-09T01:17:40.458Z,87.80
2017-07-09T01:20:08.324Z,87.40
2017-07-09T01:22:36.221Z,87.60
2017-07-09T01:25:04.047Z,87.90
2017-07-09T01:27:31.954Z,87.80
2017-07-09T01:29:59.829Z,87.80
2017-07-09T01:32:28.480Z,89.70
2017-07-09T01:34:56.433Z,89.50
2017-07-09T01:37:24.298Z,88.80
2017-07-09T01:39:52.225Z,87.80
2017-07-09T01:42:20.962Z,87.70
2017-07-09T01:44:48.899Z,87.50
2017-07-09T01:47:16.832Z,87.30
2017-07-09T01:49:44.715Z,87.90
2017-07-09T01:52:12.575Z,87.60
2017-07-09T01:54:40.531Z,87.50
2017-07-09T01:57:08.504Z,87.40
2017-07-09T01:59:36.435Z,88.20
2017-07-09T02:02:04.648Z,88.80
2017-07-09T02:04:32.523Z,89.30
2017-07-09T02:07:00.407Z,89.90
2017-07-09T02:09:28.335Z,89.70
2017-07-09T02:11:56.191Z,88.60
2017-07-09T02:14:24.049Z,88.90
2017-07-09T02:16:51.969Z,88.60
2017-07-09T02:19:19.856Z,89.50
2017-07-09T02:21:47.784Z,88.50
2017-07-09T02:24:15.633Z,88.60
2017-07-09T02:26:43.850Z,88.80
2017-07-09T02:29:11.741Z,88.00
2017-07-09T02:31:39.595Z,88.10
2017-07-09T02:34:08.315Z,88.00
2017-07-09T02:36:36.187Z,88.10
2017-07-09T02:39:04.202Z,87.70
2017-07-09T02:41:32.134Z,87.60
2017-07-09T02:43:59.995Z,88.10
2017-07-09T02:46:27.952Z,88.60
2017-07-09T02:48:55.857Z,88.70
2017-07-09T02:51:23.731Z,88.60
2017-07-09T02:53:51.657Z,88.70
2017-07-09T02:56:20.304Z,89.10
2017-07-09T02:58:48.199Z,89.00
2017-07-09T03:01:16.103Z,90.30
2017-07-09T03:03:44.745Z,90.30
2017-07-09T03:06:12.604Z,90.10
2017-07-09T03:08:40.572Z,90.20
2017-07-09T03:11:08.470Z,90.00
2017-07-09T03:13:36.368Z,90.30
2017-07-09T03:16:04.281Z,90.20
2017-07-09T03:18:32.217Z,90.20
2017-07-09T03:21:00.883Z,90.00
2017-07-09T03:23:28.785Z,90.00
2017-07-09T03:25:56.683Z,89.30
2017-07-09T03:28:24.541Z,88.80
2017-07-09T03:30:52.527Z,88.90
2017-07-09T03:33:20.397Z,89.30
2017-07-09T03:35:48.310Z,88.40
2017-07-09T03:38:17.235Z,86.50
2017-07-09T03:40:45.860Z,83.30
2017-07-09T03:43:13.741Z,83.30
2017-07-09T03:45:43.470Z,81.20
2017-07-09T03:48:12.358Z,79.90
2017-07-09T03:50:40.237Z,79.20
2017-07-09T03:53:08.191Z,78.80
2017-07-09T03:55:36.127Z,77.70
2017-07-09T03:58:04.017Z,77.50
2017-07-09T04:00:33.447Z,77.50
2017-07-09T04:03:01.290Z,77.30
2017-07-09T04:05:29.917Z,78.10
2017-07-09T04:07:57.980Z,78.00
2017-07-09T04:10:25.863Z,77.50
2017-07-09T04:12:53.899Z,77.50
2017-07-09T04:15:23.542Z,77.30
2017-07-09T04:17:53.170Z,77.20
2017-07-09T04:20:21.033Z,76.60
2017-07-09T04:22:49.973Z,76.70
2017-07-09T04:25:17.864Z,76.50
2017-07-09T04:27:46.949Z,76.80
2017-07-09T04:30:15.812Z,77.00
2017-07-09T04:32:44.464Z,77.80
2017-07-09T04:35:12.335Z,77.80
2017-07-09T04:37:41.431Z,78.30
2017-07-09T04:40:09.316Z,78.40
2017-07-09T04:42:37.261Z,78.60
2017-07-09T04:45:05.961Z,78.90
2017-07-09T04:47:33.881Z,78.90
2017-07-09T04:50:01.783Z,79.50
2017-07-09T04:52:30.565Z,79.80
2017-07-09T04:54:59.639Z,80.20
2017-07-09T04:57:28.477Z,80.20
2017-07-09T04:59:57.176Z,80.00
2017-07-09T05:02:25.053Z,79.80
2017-07-09T05:04:52.904Z,80.30
2017-07-09T05:07:21.596Z,80.00
2017-07-09T05:09:51.799Z,80.00
2017-07-09T05:12:21.142Z,79.30
2017-07-09T05:14:49.799Z,78.90
2017-07-09T05:17:18.133Z,78.90
2017-07-09T05:19:46.042Z,78.40
2017-07-09T05:22:13.918Z,79.00
2017-07-09T05:24:41.826Z,78.10
2017-07-09T05:27:10.738Z,78.10
2017-07-09T05:29:38.890Z,78.10
2017-07-09T05:32:07.691Z,80.00
2017-07-09T05:34:36.480Z,88.70
2017-07-09T05:37:04.372Z,88.60
2017-07-09T05:39:32.203Z,92.20
2017-07-09T05:42:00.041Z,92.80
2017-07-09T05:44:27.916Z,93.80
2017-07-09T05:46:55.798Z,94.20
2017-07-09T05:49:23.684Z,95.40
2017-07-09T05:51:51.554Z,96.20
2017-07-09T05:54:19.438Z,96.40
2017-07-09T05:56:48.203Z,96.70
2017-07-09T05:59:16.072Z,96.70
2017-07-09T06:01:43.925Z,96.40
2017-07-09T06:04:19.199Z,96.70
2017-07-09T06:06:55.675Z,97.00
2017-07-09T06:09:24.584Z,96.70
2017-07-09T06:11:52.444Z,97.20
2017-07-09T06:14:20.335Z,97.10
2017-07-09T06:16:49.001Z,97.00
2017-07-09T06:19:16.952Z,97.10
2017-07-09T06:21:44.847Z,97.20
2017-07-09T06:24:12.763Z,97.40
2017-07-09T06:26:40.609Z,96.10
2017-07-09T06:29:09.247Z,96.80
2017-07-09T06:31:39.223Z,96.70
2017-07-09T06:34:08.436Z,95.20
2017-07-09T06:36:36.272Z,95.10
2017-07-09T06:39:05.036Z,95.20
2017-07-09T06:41:33.188Z,95.00
2017-07-09T06:44:01.073Z,93.90
2017-07-09T06:46:29.037Z,94.40
2017-07-09T06:48:56.876Z,93.30
2017-07-09T06:51:26.137Z,93.10
2017-07-09T06:53:54.864Z,93.20
2017-07-09T06:56:23.054Z,93.10
2017-07-09T06:58:51.693Z,92.20
2017-07-09T07:01:19.551Z,91.60
2017-07-09T07:03:47.430Z,91.70
2017-07-09T07:06:15.349Z,91.40
2017-07-09T07:08:43.982Z,93.00
2017-07-09T07:11:11.854Z,93.40
2017-07-09T07:13:39.855Z,93.10
2017-07-09T07:16:07.756Z,92.20
2017-07-09T07:18:35.635Z,92.20
2017-07-09T07:21:03.552Z,93.20
2017-07-09T07:23:31.479Z,93.00
2017-07-09T07:25:59.358Z,94.40
2017-07-09T07:28:28.988Z,94.40
2017-07-09T07:30:56.830Z,95.80
2017-07-09T07:33:25.433Z,94.70
2017-07-09T07:35:53.326Z,94.80
2017-07-09T07:38:21.222Z,94.90
2017-07-09T07:40:49.117Z,94.30
2017-07-09T07:43:17.037Z,93.60
2017-07-09T07:45:44.902Z,93.40
2017-07-09T07:48:12.777Z,92.10
2017-07-09T07:50:40.697Z,91.30
2017-07-09T07:53:08.546Z,91.30
2017-07-09T07:55:36.444Z,92.30
2017-07-09T07:58:05.420Z,92.40
2017-07-09T08:00:33.972Z,92.30
2017-07-09T08:03:02.028Z,92.20
2017-07-09T08:05:31.695Z,92.70
2017-07-09T08:07:59.878Z,91.10
2017-07-09T08:10:43.685Z,91.30
2017-07-09T08:13:12.387Z,92.00
2017-07-09T08:15:40.482Z,92.00
2017-07-09T08:18:08.454Z,92.00
2017-07-09T08:20:37.544Z,91.40
2017-07-09T08:23:14.704Z,90.40
2017-07-09T08:25:44.019Z,90.00
2017-07-09T08:28:13.194Z,89.10
2017-07-09T08:30:41.823Z,88.60
2017-07-09T08:33:09.949Z,87.20
2017-07-09T08:35:37.912Z,82.40
2017-07-09T08:38:06.771Z,81.50
2017-07-09T08:40:35.117Z,81.50
2017-07-09T08:43:04.876Z,77.90
2017-07-09T08:45:33.895Z,73.00
2017-07-09T08:48:02.957Z,72.90
2017-07-09T08:50:31.785Z,62.60
2017-07-09T08:53:00.726Z,63.10
2017-07-09T08:55:30.695Z,62.90
2017-07-09T08:57:59.432Z,57.70
2017-07-09T09:00:27.895Z,56.00
2017-07-09T09:02:56.204Z,58.10
2017-07-09T09:05:24.811Z,52.20
2017-07-09T09:07:53.817Z,54.40
2017-07-09T09:10:23.606Z,53.60
2017-07-09T09:12:51.538Z,53.40
2017-07-09T09:15:19.855Z,49.80
2017-07-09T09:17:48.031Z,50.20
2017-07-09T09:20:16.045Z,45.90
2017-07-09T09:22:45.189Z,47.80
2017-07-09T09:25:13.666Z,47.70
2017-07-09T09:27:42.867Z,53.00
2017-07-09T09:30:11.891Z,52.90
2017-07-09T09:32:39.966Z,53.90
2017-07-09T09:35:11.909Z,52.90
2017-07-09T09:37:41.418Z,55.90
2017-07-09T09:40:13.553Z,54.40
2017-07-09T09:42:44.103Z,55.00
2017-07-09T09:45:12.278Z,55.10
2017-07-09T09:47:41.396Z,55.90
2017-07-09T09:50:09.587Z,57.10
2017-07-09T09:52:37.836Z,57.40
2017-07-09T09:55:06.970Z,55.00
2017-07-09T09:57:36.160Z,56.00
2017-07-09T10:00:04.418Z,55.50
2017-07-09T10:02:33.337Z,54.20
2017-07-09T10:05:02.822Z,53.70
2017-07-09T10:07:31.686Z,53.60
2017-07-09T10:09:59.705Z,51.40
2017-07-09T10:12:27.715Z,49.60
2017-07-09T10:14:55.670Z,46.20
2017-07-09T10:17:23.680Z,42.60
2017-07-09T10:19:51.615Z,43.20
2017-07-09T10:22:20.554Z,41.70
2017-07-09T10:24:48.762Z,41.60
2017-07-09T10:27:17.667Z,41.50
2017-07-09T10:29:46.581Z,44.90
2017-07-09T10:32:14.780Z,44.80
2017-07-09T10:34:43.112Z,44.50
2017-07-09T10:37:11.603Z,45.30
2017-07-09T10:39:39.888Z,45.40
2017-07-09T10:42:08.262Z,44.70
2017-07-09T10:44:36.725Z,45.50
2017-07-09T10:47:04.656Z,47.00
2017-07-09T10:49:32.597Z,46.30
2017-07-09T10:52:00.604Z,44.60
2017-07-09T10:54:28.500Z,42.30
2017-07-09T10:56:56.376Z,41.40
2017-07-09T10:59:24.366Z,39.90
2017-07-09T11:01:52.232Z,41.20
2017-07-09T11:04:20.120Z,38.00
2017-07-09T11:06:48.178Z,40.30
2017-07-09T11:09:16.300Z,38.70
2017-07-09T11:11:44.212Z,37.70
2017-07-09T11:14:12.202Z,38.30
2017-07-09T11:16:40.441Z,37.60
2017-07-09T11:19:08.342Z,36.60
2017-07-09T11:21:36.310Z,36.60
2017-07-09T11:24:04.277Z,36.90
2017-07-09T11:26:32.222Z,38.00
2017-07-09T11:29:00.909Z,38.00
2017-07-09T11:31:29.592Z,35.50
2017-07-09T11:34:01.716Z,34.60
2017-07-09T11:36:39.120Z,34.50
2017-07-09T11:39:07.089Z,35.00
2017-07-09T11:41:35.029Z,33.50
2017-07-09T11:44:02.935Z,32.90
2017-07-09T11:46:30.867Z,35.10
2017-07-09T11:48:58.817Z,32.70
2017-07-09T11:51:27.518Z,35.90
2017-07-09T11:53:55.391Z,35.50
2017-07-09T11:56:23.258Z,35.30
2017-07-09T11:58:51.178Z,35.70
2017-07-09T12:01:19.056Z,34.30
2017-07-09T12:03:46.958Z,36.30
2017-07-09T12:06:14.873Z,35.70
2017-07-09T12:08:42.749Z,34.40
2017-07-09T12:11:10.613Z,35.80
2017-07-09T12:13:38.486Z,34.60
2017-07-09T12:16:06.448Z,32.40
2017-07-09T12:18:34.366Z,34.80
2017-07-09T12:21:02.298Z,35.70
2017-07-09T12:23:30.154Z,34.60
2017-07-09T12:25:58.913Z,34.60
2017-07-09T12:28:26.944Z,34.80
2017-07-09T12:30:54.814Z,33.60
2017-07-09T12:33:28.899Z,31.50
2017-07-09T12:35:56.839Z,33.30
2017-07-09T12:38:24.729Z,33.70
2017-07-09T12:40:52.612Z,32.10
2017-07-09T12:43:20.779Z,33.00
2017-07-09T12:45:48.658Z,31.40
2017-07-09T12:48:16.530Z,31.30
2017-07-09T12:50:44.476Z,32.10
2017-07-09T12:53:12.370Z,33.50
2017-07-09T12:55:40.245Z,32.60
2017-07-09T12:58:08.234Z,30.50
2017-07-09T13:00:37.537Z,29.80
2017-07-09T13:03:06.463Z,29.70
2017-07-09T13:05:34.332Z,31.20
2017-07-09T13:08:02.316Z,34.90
2017-07-09T13:10:30.406Z,34.40
2017-07-09T13:12:58.275Z,34.80
2017-07-09T13:15:26.182Z,36.30
2017-07-09T13:17:54.314Z,35.20
2017-07-09T13:20:22.281Z,34.40
2017-07-09T13:22:50.171Z,33.40
2017-07-09T13:25:18.176Z,35.50
2017-07-09T13:27:46.040Z,37.40
2017-07-09T13:30:13.877Z,38.20
2017-07-09T13:32:41.838Z,37.70
2017-07-09T13:35:09.705Z,39.30
2017-07-09T13:37:37.569Z,37.50
2017-07-09T13:40:05.511Z,38.30
2017-07-09T13:42:33.420Z,39.10
2017-07-09T13:45:01.295Z,37.70
2017-07-09T13:47:29.224Z,37.40
2017-07-09T13:49:57.162Z,38.30
2017-07-09T13:52:24.997Z,38.30
2017-07-09T13:54:55.436Z,38.10
2017-07-09T13:57:24.441Z,38.00
2017-07-09T13:59:52.406Z,36.80
2017-07-09T14:02:20.347Z,35.90
2017-07-09T14:04:48.214Z,37.30
2017-07-09T14:07:16.867Z,39.20
2017-07-09T14:09:45.573Z,39.20
2017-07-09T14:12:21.333Z,40.50
2017-07-09T14:14:49.320Z,37.10
2017-07-09T14:17:17.252Z,35.10
2017-07-09T14:19:45.171Z,35.60
2017-07-09T14:22:13.153Z,36.60
2017-07-09T14:24:42.267Z,37.20
2017-07-09T14:27:10.300Z,37.20
2017-07-09T14:29:38.236Z,38.30
2017-07-09T14:32:06.169Z,38.70
2017-07-09T14:34:34.085Z,40.00
2017-07-09T14:37:02.111Z,42.10
2017-07-09T14:39:29.991Z,45.20
2017-07-09T14:41:58.695Z,49.70
2017-07-09T14:44:26.625Z,49.00
2017-07-09T14:46:54.541Z,50.20
2017-07-09T14:49:22.442Z,51.40
2017-07-09T14:51:51.341Z,52.50
2017-07-09T14:54:19.329Z,52.50
2017-07-09T14:56:47.242Z,52.70
2017-07-09T14:59:15.288Z,54.40
2017-07-09T15:01:43.171Z,54.60
2017-07-09T15:04:11.125Z,54.70
2017-07-09T15:06:39.612Z,54.60
2017-07-09T15:09:07.614Z,54.40
2017-07-09T15:11:36.316Z,53.70
2017-07-09T15:14:04.225Z,53.60
2017-07-09T15:16:32.100Z,52.90
2017-07-09T15:19:00.072Z,53.50
2017-07-09T15:21:27.957Z,53.40
2017-07-09T15:23:55.833Z,52.70
2017-07-09T15:26:23.738Z,52.00
2017-07-09T15:28:51.798Z,51.00
2017-07-09T15:31:19.660Z,50.20
2017-07-09T15:33:47.597Z,47.30
2017-07-09T15:36:15.632Z,44.80
2017-07-09T15:38:43.467Z,44.60
2017-07-09T15:41:11.816Z,45.10
2017-07-09T15:43:39.769Z,45.30
2017-07-09T15:46:08.425Z,47.40
2017-07-09T15:48:36.325Z,47.30
2017-07-09T15:51:05.298Z,47.30
2017-07-09T15:53:33.217Z,49.10
2017-07-09T15:56:01.919Z,49.20
2017-07-09T15:58:29.776Z,49.20
2017-07-09T16:00:59.220Z,51.40
2017-07-09T16:03:27.169Z,51.40
2017-07-09T16:05:55.329Z,52.10
2017-07-09T16:08:23.278Z,53.10
2017-07-09T16:10:51.232Z,54.50
2017-07-09T16:13:19.322Z,54.90
2017-07-09T16:15:47.228Z,54.10
2017-07-09T16:18:16.096Z,54.80
2017-07-09T16:20:44.301Z,54.80
2017-07-09T16:23:13.105Z,55.60
2017-07-09T16:25:49.906Z,56.50
2017-07-09T16:28:20.953Z,58.20
2017-07-09T16:30:49.167Z,57.30
2017-07-09T16:33:18.062Z,57.90
2017-07-09T16:35:46.716Z,57.20
2017-07-09T16:38:14.632Z,57.10
2017-07-09T16:40:43.039Z,57.70
2017-07-09T16:43:11.764Z,57.40
2017-07-09T16:45:42.409Z,56.60
2017-07-09T16:48:11.522Z,56.10
2017-07-09T16:50:39.413Z,55.50
2017-07-09T16:53:10.069Z,54.90
2017-07-09T16:55:39.277Z,54.90
2017-07-09T16:58:09.483Z,53.30
2017-07-09T17:00:43.353Z,53.10
2017-07-09T17:03:11.299Z,53.10
2017-07-09T17:05:39.685Z,52.10
2017-07-09T17:08:09.386Z,52.50
2017-07-09T17:10:37.916Z,52.90
2017-07-09T17:13:05.984Z,53.80
2017-07-09T17:15:34.045Z,53.80
2017-07-09T17:18:02.055Z,55.10
2017-07-09T17:20:29.994Z,55.20
2017-07-09T17:22:58.938Z,55.10
2017-07-09T17:25:27.025Z,56.20
2017-07-09T17:27:55.085Z,57.10
2017-07-09T17:30:22.969Z,57.70
2017-07-09T17:32:51.676Z,59.40
2017-07-09T17:35:19.864Z,59.40
2017-07-09T17:37:48.750Z,60.70
2017-07-09T17:40:16.825Z,61.90
2017-07-09T17:42:45.620Z,62.00
2017-07-09T17:45:13.566Z,61.80
2017-07-09T17:47:42.230Z,61.60
2017-07-09T17:50:10.776Z,62.30
2017-07-09T17:52:39.207Z,63.90
2017-07-09T17:55:08.836Z,64.10
2017-07-09T17:57:37.554Z,65.30
2017-07-09T18:00:06.328Z,65.60
2017-07-09T18:02:35.296Z,66.10
2017-07-09T18:05:05.082Z,66.10
2017-07-09T18:07:33.585Z,66.30
2017-07-09T18:10:02.053Z,65.80
2017-07-09T18:12:31.586Z,66.60
2017-07-09T18:15:01.033Z,67.00
2017-07-09T18:17:29.579Z,67.90
2017-07-09T18:19:58.159Z,68.20
2017-07-09T18:22:26.892Z,68.30
2017-07-09T18:24:56.569Z,69.20
2017-07-09T18:27:25.849Z,69.20
2017-07-09T18:29:54.420Z,68.80
2017-07-09T18:32:23.943Z,70.20
2017-07-09T18:34:52.890Z,70.00
2017-07-09T18:37:23.190Z,69.90
2017-07-09T18:39:51.835Z,69.60
2017-07-09T18:42:20.204Z,71.10
2017-07-09T18:44:49.625Z,70.60
2017-07-09T18:47:17.600Z,70.50
2017-07-09T18:49:45.811Z,71.00
2017-07-09T18:52:14.088Z,71.70
2017-07-09T18:54:42.433Z,72.10
2017-07-09T18:57:10.797Z,71.80
2017-07-09T18:59:38.768Z,71.90
2017-07-09T19:02:06.673Z,72.20
2017-07-09T19:04:34.647Z,73.10
2017-07-09T19:07:02.580Z,72.50
2017-07-09T19:09:30.503Z,72.70
2017-07-09T19:11:58.426Z,73.00
2017-07-09T19:14:26.472Z,73.20
2017-07-09T19:16:54.356Z,73.30
2017-07-09T19:19:23.459Z,74.30
2017-07-09T19:21:51.399Z,75.60
2017-07-09T19:24:19.398Z,76.00
2017-07-09T19:26:47.470Z,79.50
2017-07-09T19:29:15.576Z,85.00
2017-07-09T19:31:43.457Z,89.30
2017-07-09T19:34:12.381Z,90.10
2017-07-09T19:36:40.266Z,91.40
2017-07-09T19:39:08.211Z,93.20
2017-07-09T19:41:36.230Z,93.60
2017-07-09T19:44:04.212Z,95.20
2017-07-09T19:46:33.195Z,94.70
2017-07-09T19:49:01.136Z,95.30
2017-07-09T19:51:29.082Z,95.10
2017-07-09T19:53:59.477Z,94.90
2017-07-09T19:56:27.518Z,96.00
2017-07-09T19:58:55.702Z,96.60
2017-07-09T20:01:23.992Z,98.00
2017-07-09T20:03:52.135Z,98.30
2017-07-09T20:06:20.261Z,97.40
2017-07-09T20:08:48.597Z,96.90
2017-07-09T20:11:16.817Z,97.90
2017-07-09T20:13:45.210Z,98.40
2017-07-09T20:16:13.571Z,98.40
2017-07-09T20:18:41.950Z,98.20
2017-07-09T20:21:10.034Z,98.40
2017-07-09T20:23:38.356Z,97.80
2017-07-09T20:26:06.537Z,99.20
2017-07-09T20:28:34.749Z,99.60
2017-07-09T20:31:02.852Z,99.90
2017-07-09T20:33:30.968Z,99.60
2017-07-09T20:35:59.219Z,99.40
2017-07-09T20:38:27.611Z,99.60
2017-07-09T20:40:55.691Z,99.90
2017-07-09T20:43:23.899Z,99.70
2017-07-09T20:45:52.862Z,99.90
2017-07-09T20:48:21.191Z,99.70
2017-07-09T20:50:50.109Z,99.50
2017-07-09T20:53:18.047Z,99.50
2017-07-09T20:55:46.123Z,99.70
2017-07-09T20:58:16.867Z,99.40
2017-07-09T21:00:46.493Z,99.90
2017-07-09T21:03:15.391Z,99.90
2017-07-09T21:05:44.337Z,99.90
2017-07-09T21:08:12.568Z,99.90
2017-07-09T21:10:40.470Z,99.80
2017-07-09T21:13:08.371Z,99.20
2017-07-09T21:15:36.286Z,99.70
2017-07-09T21:18:04.191Z,99.90
2017-07-09T21:20:32.068Z,99.60
2017-07-09T21:23:00.013Z,99.90
2017-07-09T21:25:28.703Z,99.80
2017-07-09T21:27:57.508Z,99.80
2017-07-09T21:30:25.440Z,99.80
2017-07-09T21:32:53.302Z,99.90
2017-07-09T21:35:21.180Z,99.90
2017-07-09T21:37:49.093Z,99.70
2017-07-09T21:40:16.954Z,99.90
2017-07-09T21:42:45.611Z,99.90
2017-07-09T21:45:13.532Z,99.90
2017-07-09T21:47:41.439Z,99.90
2017-07-09T21:50:09.332Z,99.90
2017-07-09T21:52:37.263Z,99.90
2017-07-09T21:55:05.161Z,99.90
2017-07-09T21:57:33.127Z,99.80
2017-07-09T22:00:01.054Z,99.90
2017-07-09T22:02:28.940Z,99.90
2017-07-09T22:04:56.837Z,99.90
2017-07-09T22:07:24.751Z,99.90
2017-07-09T22:09:53.399Z,99.90
2017-07-09T22:12:21.301Z,99.90
2017-07-09T22:14:49.249Z,99.90
2017-07-09T22:17:17.153Z,99.90
2017-07-09T22:19:46.200Z,99.90
2017-07-09T22:22:14.120Z,99.90
2017-07-09T22:24:42.055Z,99.90
2017-07-09T22:27:09.947Z,99.90
2017-07-09T22:29:37.891Z,99.90
2017-07-09T22:32:05.855Z,99.90
2017-07-09T22:34:33.754Z,99.90
2017-07-09T22:37:01.696Z,99.90
2017-07-09T22:39:29.584Z,99.90
2017-07-09T22:41:57.482Z,99.90
2017-07-09T22:44:25.421Z,99.90
2017-07-09T22:46:53.279Z,99.90
2017-07-09T22:49:23.205Z,99.90
2017-07-09T22:51:51.189Z,99.90
2017-07-09T22:54:19.093Z,99.90
2017-07-09T22:56:47.826Z,99.90
2017-07-09T22:59:15.724Z,99.90
2017-07-09T23:01:43.574Z,99.90
2017-07-09T23:04:11.542Z,99.90
2017-07-09T23:06:40.187Z,99.90
2017-07-09T23:09:08.057Z,99.90
2017-07-09T23:11:35.970Z,99.90
2017-07-09T23:14:04.639Z,99.90
2017-07-09T23:16:32.584Z,99.90
2017-07-09T23:19:00.486Z,99.90
2017-07-09T23:21:28.350Z,99.90
2017-07-09T23:23:56.314Z,99.90
2017-07-09T23:26:24.360Z,99.90
2017-07-09T23:28:52.804Z,99.90
2017-07-09T23:31:20.718Z,99.90
2017-07-09T23:33:49.179Z,99.90
2017-07-09T23:36:19.456Z,99.90
2017-07-09T23:38:47.359Z,99.90
2017-07-09T23:41:16.034Z,99.90
2017-07-09T23:43:43.895Z,99.90
2017-07-09T23:46:11.793Z,99.90
2017-07-09T23:48:40.513Z,99.90
2017-07-09T23:51:08.404Z,99.90
2017-07-09T23:53:36.275Z,99.90
2017-07-09T23:56:04.209Z,99.90
2017-07-09T23:58:32.088Z,99.90
